sensor_id;sensor_type;location;lat;lon;timestamp;P1;durP1;ratioP1;P2;durP2;ratioP2
45420;SDS011;55462;47.042;8.292;2024-03-06T00:01:28;1.67;;;1.57;;
45420;SDS011;55462;47.042;8.292;2024-03-06T00:03:53;2.40;;;2.20;;
45420;SDS011;55462;47.042;8.292;2024-03-06T00:06:18;1.80;;;1.70;;
45420;SDS011;55462;47.042;8.292;2024-03-06T00:08:43;1.40;;;1.40;;
45420;SDS011;55462;47.042;8.292;2024-03-06T00:11:09;1.27;;;1.27;;
45420;SDS011;55462;47.042;8.292;2024-03-06T00:13:34;1.40;;;1.40;;
45420;SDS011;55462;47.042;8.292;2024-03-06T00:15:59;1.80;;;1.70;;
45420;SDS011;55462;47.042;8.292;2024-03-06T00:18:25;1.43;;;1.43;;
45420;SDS011;55462;47.042;8.292;2024-03-06T00:20:50;1.70;;;1.60;;
45420;SDS011;55462;47.042;8.292;2024-03-06T00:23:15;1.40;;;1.40;;
45420;SDS011;55462;47.042;8.292;2024-03-06T00:25:41;1.37;;;1.37;;
45420;SDS011;55462;47.042;8.292;2024-03-06T00:28:06;1.20;;;1.20;;
45420;SDS011;55462;47.042;8.292;2024-03-06T00:30:31;1.30;;;1.30;;
45420;SDS011;55462;47.042;8.292;2024-03-06T00:32:57;1.13;;;1.13;;
45420;SDS011;55462;47.042;8.292;2024-03-06T00:35:23;1.37;;;1.37;;
45420;SDS011;55462;47.042;8.292;2024-03-06T00:37:49;1.30;;;1.30;;
45420;SDS011;55462;47.042;8.292;2024-03-06T00:40:14;1.80;;;1.70;;
45420;SDS011;55462;47.042;8.292;2024-03-06T00:42:39;1.73;;;1.63;;
45420;SDS011;55462;47.042;8.292;2024-03-06T00:45:06;1.67;;;1.67;;
45420;SDS011;55462;47.042;8.292;2024-03-06T00:47:31;1.70;;;1.60;;
45420;SDS011;55462;47.042;8.292;2024-03-06T00:49:59;1.80;;;1.70;;
45420;SDS011;55462;47.042;8.292;2024-03-06T00:52:24;1.87;;;1.77;;
45420;SDS011;55462;47.042;8.292;2024-03-06T00:54:49;1.90;;;1.80;;
45420;SDS011;55462;47.042;8.292;2024-03-06T00:57:15;1.73;;;1.63;;
45420;SDS011;55462;47.042;8.292;2024-03-06T00:59:43;1.80;;;1.70;;
45420;SDS011;55462;47.042;8.292;2024-03-06T01:02:08;2.03;;;1.73;;
45420;SDS011;55462;47.042;8.292;2024-03-06T01:04:34;1.40;;;1.30;;
45420;SDS011;55462;47.042;8.292;2024-03-06T01:06:59;1.37;;;1.37;;
45420;SDS011;55462;47.042;8.292;2024-03-06T01:09:24;1.30;;;1.30;;
45420;SDS011;55462;47.042;8.292;2024-03-06T01:11:50;1.20;;;1.20;;
45420;SDS011;55462;47.042;8.292;2024-03-06T01:14:15;1.20;;;1.20;;
45420;SDS011;55462;47.042;8.292;2024-03-06T01:16:41;1.30;;;1.30;;
45420;SDS011;55462;47.042;8.292;2024-03-06T01:19:06;1.47;;;1.40;;
45420;SDS011;55462;47.042;8.292;2024-03-06T01:21:32;1.70;;;1.60;;
45420;SDS011;55462;47.042;8.292;2024-03-06T01:23:59;1.40;;;1.40;;
45420;SDS011;55462;47.042;8.292;2024-03-06T01:26:24;1.40;;;1.40;;
45420;SDS011;55462;47.042;8.292;2024-03-06T01:28:50;1.40;;;1.40;;
45420;SDS011;55462;47.042;8.292;2024-03-06T01:31:15;1.50;;;1.50;;
45420;SDS011;55462;47.042;8.292;2024-03-06T01:33:40;1.70;;;1.60;;
45420;SDS011;55462;47.042;8.292;2024-03-06T01:36:05;1.63;;;1.60;;
45420;SDS011;55462;47.042;8.292;2024-03-06T01:38:31;1.60;;;1.60;;
45420;SDS011;55462;47.042;8.292;2024-03-06T01:40:56;1.50;;;1.50;;
45420;SDS011;55462;47.042;8.292;2024-03-06T01:43:22;1.60;;;1.60;;
45420;SDS011;55462;47.042;8.292;2024-03-06T01:45:49;1.50;;;1.50;;
45420;SDS011;55462;47.042;8.292;2024-03-06T01:48:17;1.50;;;1.50;;
45420;SDS011;55462;47.042;8.292;2024-03-06T01:50:42;1.80;;;1.70;;
45420;SDS011;55462;47.042;8.292;2024-03-06T01:53:08;1.47;;;1.43;;
45420;SDS011;55462;47.042;8.292;2024-03-06T01:55:34;2.27;;;1.60;;
45420;SDS011;55462;47.042;8.292;2024-03-06T01:58:00;1.83;;;1.73;;
45420;SDS011;55462;47.042;8.292;2024-03-06T02:00:25;1.50;;;1.50;;
45420;SDS011;55462;47.042;8.292;2024-03-06T02:02:51;1.60;;;1.60;;
45420;SDS011;55462;47.042;8.292;2024-03-06T02:05:16;1.70;;;1.60;;
45420;SDS011;55462;47.042;8.292;2024-03-06T02:07:42;1.80;;;1.70;;
45420;SDS011;55462;47.042;8.292;2024-03-06T02:10:08;1.80;;;1.80;;
45420;SDS011;55462;47.042;8.292;2024-03-06T02:12:35;1.80;;;1.80;;
45420;SDS011;55462;47.042;8.292;2024-03-06T02:15:01;1.23;;;1.23;;
45420;SDS011;55462;47.042;8.292;2024-03-06T02:17:28;1.50;;;1.40;;
45420;SDS011;55462;47.042;8.292;2024-03-06T02:19:54;1.20;;;1.20;;
45420;SDS011;55462;47.042;8.292;2024-03-06T02:22:20;1.20;;;1.20;;
45420;SDS011;55462;47.042;8.292;2024-03-06T02:24:47;1.10;;;1.10;;
45420;SDS011;55462;47.042;8.292;2024-03-06T02:27:13;1.03;;;1.03;;
45420;SDS011;55462;47.042;8.292;2024-03-06T02:29:38;1.10;;;1.10;;
45420;SDS011;55462;47.042;8.292;2024-03-06T02:32:04;1.10;;;1.10;;
45420;SDS011;55462;47.042;8.292;2024-03-06T02:34:29;1.13;;;1.13;;
45420;SDS011;55462;47.042;8.292;2024-03-06T02:36:55;1.30;;;1.30;;
45420;SDS011;55462;47.042;8.292;2024-03-06T02:39:21;1.60;;;1.60;;
45420;SDS011;55462;47.042;8.292;2024-03-06T02:41:46;2.33;;;2.23;;
45420;SDS011;55462;47.042;8.292;2024-03-06T02:44:12;2.40;;;2.20;;
45420;SDS011;55462;47.042;8.292;2024-03-06T02:46:38;2.57;;;2.47;;
45420;SDS011;55462;47.042;8.292;2024-03-06T02:49:03;2.57;;;2.40;;
45420;SDS011;55462;47.042;8.292;2024-03-06T02:51:30;2.00;;;1.90;;
45420;SDS011;55462;47.042;8.292;2024-03-06T02:53:56;1.90;;;1.80;;
45420;SDS011;55462;47.042;8.292;2024-03-06T02:56:21;2.10;;;2.00;;
45420;SDS011;55462;47.042;8.292;2024-03-06T02:58:46;2.07;;;1.97;;
45420;SDS011;55462;47.042;8.292;2024-03-06T03:01:13;2.10;;;2.00;;
45420;SDS011;55462;47.042;8.292;2024-03-06T03:03:41;2.20;;;2.10;;
45420;SDS011;55462;47.042;8.292;2024-03-06T03:06:07;2.10;;;2.00;;
45420;SDS011;55462;47.042;8.292;2024-03-06T03:08:33;3.10;;;2.27;;
45420;SDS011;55462;47.042;8.292;2024-03-06T03:10:58;2.83;;;2.73;;
45420;SDS011;55462;47.042;8.292;2024-03-06T03:13:23;2.70;;;2.60;;
45420;SDS011;55462;47.042;8.292;2024-03-06T03:15:49;2.50;;;2.40;;
45420;SDS011;55462;47.042;8.292;2024-03-06T03:18:14;2.10;;;2.00;;
45420;SDS011;55462;47.042;8.292;2024-03-06T03:20:39;2.67;;;2.57;;
45420;SDS011;55462;47.042;8.292;2024-03-06T03:23:05;2.87;;;2.77;;
45420;SDS011;55462;47.042;8.292;2024-03-06T03:25:36;3.17;;;2.97;;
45420;SDS011;55462;47.042;8.292;2024-03-06T03:28:01;3.10;;;2.90;;
45420;SDS011;55462;47.042;8.292;2024-03-06T03:30:27;3.17;;;2.97;;
45420;SDS011;55462;47.042;8.292;2024-03-06T03:32:52;3.17;;;2.97;;
45420;SDS011;55462;47.042;8.292;2024-03-06T03:35:17;3.60;;;3.37;;
45420;SDS011;55462;47.042;8.292;2024-03-06T03:37:45;2.73;;;2.60;;
45420;SDS011;55462;47.042;8.292;2024-03-06T03:40:11;4.50;;;2.97;;
45420;SDS011;55462;47.042;8.292;2024-03-06T03:42:37;3.13;;;2.83;;
45420;SDS011;55462;47.042;8.292;2024-03-06T03:45:05;2.97;;;2.77;;
45420;SDS011;55462;47.042;8.292;2024-03-06T03:47:30;3.10;;;2.90;;
45420;SDS011;55462;47.042;8.292;2024-03-06T03:49:57;2.80;;;2.70;;
45420;SDS011;55462;47.042;8.292;2024-03-06T03:52:22;3.30;;;3.10;;
45420;SDS011;55462;47.042;8.292;2024-03-06T03:54:48;3.30;;;3.10;;
45420;SDS011;55462;47.042;8.292;2024-03-06T03:57:13;2.63;;;2.53;;
45420;SDS011;55462;47.042;8.292;2024-03-06T03:59:39;2.50;;;2.40;;
45420;SDS011;55462;47.042;8.292;2024-03-06T04:02:06;2.50;;;2.30;;
45420;SDS011;55462;47.042;8.292;2024-03-06T04:04:31;2.40;;;2.30;;
45420;SDS011;55462;47.042;8.292;2024-03-06T04:06:56;2.20;;;2.10;;
45420;SDS011;55462;47.042;8.292;2024-03-06T04:09:24;2.23;;;2.13;;
45420;SDS011;55462;47.042;8.292;2024-03-06T04:11:49;2.20;;;2.10;;
45420;SDS011;55462;47.042;8.292;2024-03-06T04:14:15;1.47;;;1.47;;
45420;SDS011;55462;47.042;8.292;2024-03-06T04:16:40;1.67;;;1.57;;
45420;SDS011;55462;47.042;8.292;2024-03-06T04:19:05;1.63;;;1.53;;
45420;SDS011;55462;47.042;8.292;2024-03-06T04:21:31;1.30;;;1.30;;
45420;SDS011;55462;47.042;8.292;2024-03-06T04:23:56;1.90;;;1.80;;
45420;SDS011;55462;47.042;8.292;2024-03-06T04:26:21;1.63;;;1.57;;
45420;SDS011;55462;47.042;8.292;2024-03-06T04:28:47;2.77;;;2.57;;
45420;SDS011;55462;47.042;8.292;2024-03-06T04:31:12;3.33;;;2.90;;
45420;SDS011;55462;47.042;8.292;2024-03-06T04:33:37;3.57;;;3.23;;
45420;SDS011;55462;47.042;8.292;2024-03-06T04:36:03;3.20;;;2.90;;
45420;SDS011;55462;47.042;8.292;2024-03-06T04:38:32;2.77;;;2.50;;
45420;SDS011;55462;47.042;8.292;2024-03-06T04:40:57;2.27;;;2.17;;
45420;SDS011;55462;47.042;8.292;2024-03-06T04:43:23;2.93;;;2.73;;
45420;SDS011;55462;47.042;8.292;2024-03-06T04:45:48;3.73;;;3.43;;
45420;SDS011;55462;47.042;8.292;2024-03-06T04:48:14;3.60;;;3.30;;
45420;SDS011;55462;47.042;8.292;2024-03-06T04:50:39;3.60;;;3.30;;
45420;SDS011;55462;47.042;8.292;2024-03-06T04:53:04;3.00;;;2.80;;
45420;SDS011;55462;47.042;8.292;2024-03-06T04:55:30;2.40;;;2.30;;
45420;SDS011;55462;47.042;8.292;2024-03-06T04:57:55;3.50;;;3.30;;
45420;SDS011;55462;47.042;8.292;2024-03-06T05:00:21;3.63;;;3.33;;
45420;SDS011;55462;47.042;8.292;2024-03-06T05:02:46;3.20;;;3.00;;
45420;SDS011;55462;47.042;8.292;2024-03-06T05:05:14;3.53;;;3.30;;
45420;SDS011;55462;47.042;8.292;2024-03-06T05:07:39;3.20;;;3.00;;
45420;SDS011;55462;47.042;8.292;2024-03-06T05:10:04;3.20;;;3.00;;
45420;SDS011;55462;47.042;8.292;2024-03-06T05:12:32;3.63;;;3.33;;
45420;SDS011;55462;47.042;8.292;2024-03-06T05:14:59;3.40;;;3.20;;
45420;SDS011;55462;47.042;8.292;2024-03-06T05:17:25;3.93;;;3.63;;
45420;SDS011;55462;47.042;8.292;2024-03-06T05:19:50;85.70;;;6.53;;
45420;SDS011;55462;47.042;8.292;2024-03-06T05:22:16;3.80;;;3.50;;
45420;SDS011;55462;47.042;8.292;2024-03-06T05:24:41;4.03;;;3.73;;
45420;SDS011;55462;47.042;8.292;2024-03-06T05:27:07;3.97;;;3.67;;
45420;SDS011;55462;47.042;8.292;2024-03-06T05:29:33;3.37;;;3.17;;
45420;SDS011;55462;47.042;8.292;2024-03-06T05:31:58;3.37;;;3.17;;
45420;SDS011;55462;47.042;8.292;2024-03-06T05:34:23;3.80;;;3.50;;
45420;SDS011;55462;47.042;8.292;2024-03-06T05:36:49;3.70;;;3.40;;
45420;SDS011;55462;47.042;8.292;2024-03-06T05:39:14;3.60;;;3.30;;
45420;SDS011;55462;47.042;8.292;2024-03-06T05:41:40;3.57;;;3.27;;
45420;SDS011;55462;47.042;8.292;2024-03-06T05:44:07;2.97;;;2.77;;
45420;SDS011;55462;47.042;8.292;2024-03-06T05:46:32;3.90;;;3.60;;
45420;SDS011;55462;47.042;8.292;2024-03-06T05:48:57;3.70;;;3.40;;
45420;SDS011;55462;47.042;8.292;2024-03-06T05:51:23;3.70;;;3.40;;
45420;SDS011;55462;47.042;8.292;2024-03-06T05:53:48;3.50;;;3.27;;
45420;SDS011;55462;47.042;8.292;2024-03-06T05:56:13;3.60;;;3.30;;
45420;SDS011;55462;47.042;8.292;2024-03-06T05:58:39;3.40;;;3.20;;
45420;SDS011;55462;47.042;8.292;2024-03-06T06:01:04;3.47;;;3.17;;
45420;SDS011;55462;47.042;8.292;2024-03-06T06:03:29;3.50;;;3.20;;
45420;SDS011;55462;47.042;8.292;2024-03-06T06:05:55;2.60;;;2.40;;
45420;SDS011;55462;47.042;8.292;2024-03-06T06:08:21;2.20;;;2.10;;
45420;SDS011;55462;47.042;8.292;2024-03-06T06:10:46;2.57;;;2.37;;
45420;SDS011;55462;47.042;8.292;2024-03-06T06:13:12;1.97;;;1.87;;
45420;SDS011;55462;47.042;8.292;2024-03-06T06:15:37;2.20;;;2.10;;
45420;SDS011;55462;47.042;8.292;2024-03-06T06:18:02;1.87;;;1.77;;
45420;SDS011;55462;47.042;8.292;2024-03-06T06:20:28;1.73;;;1.63;;
45420;SDS011;55462;47.042;8.292;2024-03-06T06:22:53;1.70;;;1.60;;
45420;SDS011;55462;47.042;8.292;2024-03-06T06:25:19;1.80;;;1.70;;
45420;SDS011;55462;47.042;8.292;2024-03-06T06:27:44;1.90;;;1.80;;
45420;SDS011;55462;47.042;8.292;2024-03-06T06:30:09;1.73;;;1.63;;
45420;SDS011;55462;47.042;8.292;2024-03-06T06:32:37;1.80;;;1.70;;
45420;SDS011;55462;47.042;8.292;2024-03-06T06:35:04;1.70;;;1.60;;
45420;SDS011;55462;47.042;8.292;2024-03-06T06:37:29;1.63;;;1.50;;
45420;SDS011;55462;47.042;8.292;2024-03-06T06:39:55;1.30;;;1.20;;
45420;SDS011;55462;47.042;8.292;2024-03-06T06:42:20;0.90;;;0.90;;
45420;SDS011;55462;47.042;8.292;2024-03-06T06:44:45;1.30;;;1.30;;
45420;SDS011;55462;47.042;8.292;2024-03-06T06:47:11;1.60;;;1.50;;
45420;SDS011;55462;47.042;8.292;2024-03-06T06:49:36;2.00;;;1.90;;
45420;SDS011;55462;47.042;8.292;2024-03-06T06:52:01;2.83;;;2.63;;
45420;SDS011;55462;47.042;8.292;2024-03-06T06:54:27;3.50;;;3.20;;
45420;SDS011;55462;47.042;8.292;2024-03-06T06:56:52;3.00;;;2.80;;
45420;SDS011;55462;47.042;8.292;2024-03-06T06:59:18;2.70;;;2.50;;
45420;SDS011;55462;47.042;8.292;2024-03-06T07:01:45;2.40;;;2.30;;
45420;SDS011;55462;47.042;8.292;2024-03-06T07:04:10;3.10;;;2.80;;
45420;SDS011;55462;47.042;8.292;2024-03-06T07:06:36;2.60;;;2.40;;
45420;SDS011;55462;47.042;8.292;2024-03-06T07:09:01;3.33;;;2.73;;
45420;SDS011;55462;47.042;8.292;2024-03-06T07:11:27;2.93;;;2.73;;
45420;SDS011;55462;47.042;8.292;2024-03-06T07:13:52;3.17;;;2.97;;
45420;SDS011;55462;47.042;8.292;2024-03-06T07:16:18;3.57;;;3.30;;
45420;SDS011;55462;47.042;8.292;2024-03-06T07:18:44;3.20;;;2.90;;
45420;SDS011;55462;47.042;8.292;2024-03-06T07:21:09;2.70;;;2.50;;
45420;SDS011;55462;47.042;8.292;2024-03-06T07:23:35;3.63;;;3.33;;
45420;SDS011;55462;47.042;8.292;2024-03-06T07:26:00;2.80;;;2.60;;
45420;SDS011;55462;47.042;8.292;2024-03-06T07:28:25;3.10;;;2.90;;
45420;SDS011;55462;47.042;8.292;2024-03-06T07:30:51;2.83;;;2.63;;
45420;SDS011;55462;47.042;8.292;2024-03-06T07:33:17;3.03;;;2.80;;
45420;SDS011;55462;47.042;8.292;2024-03-06T07:35:43;2.67;;;2.47;;
45420;SDS011;55462;47.042;8.292;2024-03-06T07:38:08;2.97;;;2.77;;
45420;SDS011;55462;47.042;8.292;2024-03-06T07:40:33;3.20;;;2.90;;
45420;SDS011;55462;47.042;8.292;2024-03-06T07:42:59;2.90;;;2.70;;
45420;SDS011;55462;47.042;8.292;2024-03-06T07:45:25;2.87;;;2.63;;
45420;SDS011;55462;47.042;8.292;2024-03-06T07:47:51;2.80;;;2.60;;
45420;SDS011;55462;47.042;8.292;2024-03-06T07:50:16;2.93;;;2.67;;
45420;SDS011;55462;47.042;8.292;2024-03-06T07:52:45;2.70;;;2.50;;
45420;SDS011;55462;47.042;8.292;2024-03-06T07:55:11;3.90;;;2.73;;
45420;SDS011;55462;47.042;8.292;2024-03-06T07:57:36;2.90;;;2.53;;
45420;SDS011;55462;47.042;8.292;2024-03-06T08:00:02;2.20;;;2.00;;
45420;SDS011;55462;47.042;8.292;2024-03-06T08:02:33;2.33;;;2.20;;
45420;SDS011;55462;47.042;8.292;2024-03-06T08:05:00;2.33;;;2.20;;
45420;SDS011;55462;47.042;8.292;2024-03-06T08:07:25;2.03;;;1.93;;
45420;SDS011;55462;47.042;8.292;2024-03-06T08:09:51;1.73;;;1.63;;
45420;SDS011;55462;47.042;8.292;2024-03-06T08:12:16;1.77;;;1.67;;
45420;SDS011;55462;47.042;8.292;2024-03-06T08:14:41;1.20;;;1.20;;
45420;SDS011;55462;47.042;8.292;2024-03-06T08:17:07;1.50;;;1.40;;
45420;SDS011;55462;47.042;8.292;2024-03-06T08:19:32;1.30;;;1.20;;
45420;SDS011;55462;47.042;8.292;2024-03-06T08:21:57;1.43;;;1.33;;
45420;SDS011;55462;47.042;8.292;2024-03-06T08:24:23;1.60;;;1.50;;
45420;SDS011;55462;47.042;8.292;2024-03-06T08:26:49;1.00;;;1.00;;
45420;SDS011;55462;47.042;8.292;2024-03-06T08:29:14;1.20;;;1.20;;
45420;SDS011;55462;47.042;8.292;2024-03-06T08:31:39;1.00;;;1.00;;
45420;SDS011;55462;47.042;8.292;2024-03-06T08:34:05;1.07;;;1.07;;
45420;SDS011;55462;47.042;8.292;2024-03-06T08:36:30;1.10;;;1.10;;
45420;SDS011;55462;47.042;8.292;2024-03-06T08:38:55;1.60;;;1.50;;
45420;SDS011;55462;47.042;8.292;2024-03-06T08:41:21;1.10;;;1.10;;
45420;SDS011;55462;47.042;8.292;2024-03-06T08:43:46;1.30;;;1.20;;
45420;SDS011;55462;47.042;8.292;2024-03-06T08:46:12;1.40;;;1.30;;
45420;SDS011;55462;47.042;8.292;2024-03-06T08:48:37;1.90;;;1.60;;
45420;SDS011;55462;47.042;8.292;2024-03-06T08:51:03;2.63;;;1.90;;
45420;SDS011;55462;47.042;8.292;2024-03-06T08:53:35;3.10;;;2.10;;
45420;SDS011;55462;47.042;8.292;2024-03-06T08:56:00;2.53;;;2.37;;
45420;SDS011;55462;47.042;8.292;2024-03-06T08:58:26;2.13;;;2.00;;
45420;SDS011;55462;47.042;8.292;2024-03-06T09:00:51;2.00;;;1.90;;
45420;SDS011;55462;47.042;8.292;2024-03-06T09:03:16;2.37;;;2.17;;
45420;SDS011;55462;47.042;8.292;2024-03-06T09:05:42;2.60;;;2.40;;
45420;SDS011;55462;47.042;8.292;2024-03-06T09:08:07;2.20;;;2.10;;
45420;SDS011;55462;47.042;8.292;2024-03-06T09:10:34;2.10;;;2.00;;
45420;SDS011;55462;47.042;8.292;2024-03-06T09:12:59;2.37;;;2.27;;
45420;SDS011;55462;47.042;8.292;2024-03-06T09:15:25;2.80;;;2.60;;
45420;SDS011;55462;47.042;8.292;2024-03-06T09:17:50;2.80;;;2.60;;
45420;SDS011;55462;47.042;8.292;2024-03-06T09:20:16;2.87;;;2.67;;
45420;SDS011;55462;47.042;8.292;2024-03-06T09:22:41;3.13;;;2.80;;
45420;SDS011;55462;47.042;8.292;2024-03-06T09:25:07;3.10;;;2.90;;
45420;SDS011;55462;47.042;8.292;2024-03-06T09:27:33;3.20;;;2.90;;
45420;SDS011;55462;47.042;8.292;2024-03-06T09:29:58;2.80;;;2.60;;
45420;SDS011;55462;47.042;8.292;2024-03-06T09:32:24;3.30;;;3.00;;
45420;SDS011;55462;47.042;8.292;2024-03-06T09:34:51;3.17;;;2.87;;
45420;SDS011;55462;47.042;8.292;2024-03-06T09:37:17;2.93;;;2.50;;
45420;SDS011;55462;47.042;8.292;2024-03-06T09:39:42;2.73;;;2.43;;
45420;SDS011;55462;47.042;8.292;2024-03-06T09:42:11;2.63;;;2.43;;
45420;SDS011;55462;47.042;8.292;2024-03-06T09:44:37;2.90;;;2.70;;
45420;SDS011;55462;47.042;8.292;2024-03-06T09:47:02;2.50;;;2.27;;
45420;SDS011;55462;47.042;8.292;2024-03-06T09:49:31;2.43;;;2.23;;
45420;SDS011;55462;47.042;8.292;2024-03-06T09:51:56;2.30;;;2.10;;
45420;SDS011;55462;47.042;8.292;2024-03-06T09:54:23;2.60;;;2.40;;
45420;SDS011;55462;47.042;8.292;2024-03-06T09:56:51;2.60;;;2.40;;
45420;SDS011;55462;47.042;8.292;2024-03-06T09:59:16;3.53;;;2.20;;
45420;SDS011;55462;47.042;8.292;2024-03-06T10:02:03;2.77;;;2.57;;
45420;SDS011;55462;47.042;8.292;2024-03-06T10:04:27;6.50;;;2.93;;
45420;SDS011;55462;47.042;8.292;2024-03-06T10:06:54;5.20;;;2.37;;
45420;SDS011;55462;47.042;8.292;2024-03-06T10:09:20;4.27;;;2.77;;
45420;SDS011;55462;47.042;8.292;2024-03-06T10:11:46;4.93;;;3.23;;
45420;SDS011;55462;47.042;8.292;2024-03-06T10:14:11;3.03;;;2.80;;
45420;SDS011;55462;47.042;8.292;2024-03-06T10:16:37;2.93;;;2.50;;
45420;SDS011;55462;47.042;8.292;2024-03-06T10:19:15;2.90;;;2.60;;
45420;SDS011;55462;47.042;8.292;2024-03-06T10:21:46;2.60;;;2.40;;
45420;SDS011;55462;47.042;8.292;2024-03-06T10:24:13;2.57;;;2.17;;
45420;SDS011;55462;47.042;8.292;2024-03-06T10:26:43;4.70;;;2.90;;
45420;SDS011;55462;47.042;8.292;2024-03-06T10:29:09;3.13;;;2.83;;
45420;SDS011;55462;47.042;8.292;2024-03-06T10:31:34;3.20;;;2.90;;
45420;SDS011;55462;47.042;8.292;2024-03-06T10:33:59;4.50;;;3.10;;
45420;SDS011;55462;47.042;8.292;2024-03-06T10:36:26;2.87;;;2.40;;
45420;SDS011;55462;47.042;8.292;2024-03-06T10:38:52;3.10;;;2.63;;
45420;SDS011;55462;47.042;8.292;2024-03-06T10:41:18;3.00;;;2.80;;
45420;SDS011;55462;47.042;8.292;2024-03-06T10:43:49;3.07;;;2.70;;
45420;SDS011;55462;47.042;8.292;2024-03-06T10:46:15;3.00;;;2.80;;
45420;SDS011;55462;47.042;8.292;2024-03-06T10:48:43;3.17;;;2.87;;
45420;SDS011;55462;47.042;8.292;2024-03-06T10:51:09;4.80;;;4.30;;
45420;SDS011;55462;47.042;8.292;2024-03-06T10:53:35;4.33;;;3.93;;
45420;SDS011;55462;47.042;8.292;2024-03-06T10:56:02;4.90;;;3.57;;
45420;SDS011;55462;47.042;8.292;2024-03-06T10:58:29;3.23;;;2.93;;
45420;SDS011;55462;47.042;8.292;2024-03-06T11:00:55;4.00;;;3.40;;
45420;SDS011;55462;47.042;8.292;2024-03-06T11:03:22;3.67;;;3.37;;
45420;SDS011;55462;47.042;8.292;2024-03-06T11:05:49;4.93;;;3.60;;
45420;SDS011;55462;47.042;8.292;2024-03-06T11:08:16;4.23;;;3.93;;
45420;SDS011;55462;47.042;8.292;2024-03-06T11:10:42;3.37;;;2.93;;
45420;SDS011;55462;47.042;8.292;2024-03-06T11:13:08;5.33;;;3.20;;
45420;SDS011;55462;47.042;8.292;2024-03-06T11:15:57;4.17;;;3.43;;
45420;SDS011;55462;47.042;8.292;2024-03-06T11:23:29;4.27;;;3.13;;
45420;SDS011;55462;47.042;8.292;2024-03-06T11:28:20;2.83;;;2.60;;
45420;SDS011;55462;47.042;8.292;2024-03-06T11:30:47;2.60;;;2.37;;
45420;SDS011;55462;47.042;8.292;2024-03-06T11:33:16;4.30;;;2.40;;
45420;SDS011;55462;47.042;8.292;2024-03-06T11:35:42;2.63;;;2.43;;
45420;SDS011;55462;47.042;8.292;2024-03-06T11:38:16;3.30;;;2.33;;
45420;SDS011;55462;47.042;8.292;2024-03-06T11:40:48;2.53;;;2.33;;
45420;SDS011;55462;47.042;8.292;2024-03-06T11:43:23;2.90;;;2.60;;
45420;SDS011;55462;47.042;8.292;2024-03-06T11:45:49;2.63;;;2.30;;
45420;SDS011;55462;47.042;8.292;2024-03-06T11:48:15;2.47;;;2.07;;
45420;SDS011;55462;47.042;8.292;2024-03-06T11:50:44;3.27;;;1.97;;
45420;SDS011;55462;47.042;8.292;2024-03-06T11:53:10;1.63;;;1.53;;
45420;SDS011;55462;47.042;8.292;2024-03-06T11:55:35;1.33;;;1.30;;
45420;SDS011;55462;47.042;8.292;2024-03-06T11:58:00;2.40;;;1.33;;
45420;SDS011;55462;47.042;8.292;2024-03-06T12:00:26;1.80;;;1.70;;
45420;SDS011;55462;47.042;8.292;2024-03-06T12:02:51;2.10;;;1.30;;
45420;SDS011;55462;47.042;8.292;2024-03-06T12:05:17;1.00;;;1.00;;
45420;SDS011;55462;47.042;8.292;2024-03-06T12:07:46;1.60;;;1.07;;
45420;SDS011;55462;47.042;8.292;2024-03-06T12:10:16;1.10;;;1.10;;
45420;SDS011;55462;47.042;8.292;2024-03-06T12:12:42;0.90;;;0.90;;
45420;SDS011;55462;47.042;8.292;2024-03-06T12:15:10;1.77;;;1.20;;
45420;SDS011;55462;47.042;8.292;2024-03-06T12:17:47;1.50;;;1.40;;
45420;SDS011;55462;47.042;8.292;2024-03-06T12:20:15;1.67;;;1.57;;
45420;SDS011;55462;47.042;8.292;2024-03-06T12:22:59;2.60;;;1.60;;
45420;SDS011;55462;47.042;8.292;2024-03-06T12:25:25;2.10;;;2.00;;
45420;SDS011;55462;47.042;8.292;2024-03-06T12:27:51;2.70;;;1.80;;
45420;SDS011;55462;47.042;8.292;2024-03-06T12:30:18;1.57;;;1.47;;
45420;SDS011;55462;47.042;8.292;2024-03-06T12:32:44;1.90;;;1.80;;
45420;SDS011;55462;47.042;8.292;2024-03-06T12:35:10;2.10;;;1.97;;
45420;SDS011;55462;47.042;8.292;2024-03-06T12:37:35;1.57;;;1.47;;
45420;SDS011;55462;47.042;8.292;2024-03-06T12:40:01;2.13;;;1.90;;
45420;SDS011;55462;47.042;8.292;2024-03-06T12:42:28;1.60;;;1.47;;
45420;SDS011;55462;47.042;8.292;2024-03-06T12:44:54;1.77;;;1.67;;
45420;SDS011;55462;47.042;8.292;2024-03-06T12:47:19;8.57;;;2.37;;
45420;SDS011;55462;47.042;8.292;2024-03-06T12:49:45;2.87;;;2.17;;
45420;SDS011;55462;47.042;8.292;2024-03-06T12:52:10;1.80;;;1.70;;
45420;SDS011;55462;47.042;8.292;2024-03-06T12:54:35;1.77;;;1.67;;
45420;SDS011;55462;47.042;8.292;2024-03-06T12:57:00;2.93;;;2.20;;
45420;SDS011;55462;47.042;8.292;2024-03-06T12:59:26;1.40;;;1.40;;
45420;SDS011;55462;47.042;8.292;2024-03-06T13:01:51;2.10;;;1.60;;
45420;SDS011;55462;47.042;8.292;2024-03-06T13:04:17;1.77;;;1.40;;
45420;SDS011;55462;47.042;8.292;2024-03-06T13:06:43;2.53;;;2.00;;
45420;SDS011;55462;47.042;8.292;2024-03-06T13:09:10;1.60;;;1.50;;
45420;SDS011;55462;47.042;8.292;2024-03-06T13:11:35;1.60;;;1.50;;
45420;SDS011;55462;47.042;8.292;2024-03-06T13:14:00;3.17;;;1.73;;
45420;SDS011;55462;47.042;8.292;2024-03-06T13:16:26;2.17;;;1.77;;
45420;SDS011;55462;47.042;8.292;2024-03-06T13:18:51;2.97;;;1.60;;
45420;SDS011;55462;47.042;8.292;2024-03-06T13:21:18;8.07;;;5.80;;
45420;SDS011;55462;47.042;8.292;2024-03-06T13:23:44;4.47;;;3.77;;
45420;SDS011;55462;47.042;8.292;2024-03-06T13:26:09;3.10;;;2.00;;
45420;SDS011;55462;47.042;8.292;2024-03-06T13:28:35;1.90;;;1.80;;
45420;SDS011;55462;47.042;8.292;2024-03-06T13:31:00;3.17;;;1.87;;
45420;SDS011;55462;47.042;8.292;2024-03-06T13:33:25;1.70;;;1.60;;
45420;SDS011;55462;47.042;8.292;2024-03-06T13:35:52;2.50;;;2.30;;
45420;SDS011;55462;47.042;8.292;2024-03-06T13:38:19;4.20;;;2.20;;
45420;SDS011;55462;47.042;8.292;2024-03-06T13:40:44;2.20;;;2.10;;
45420;SDS011;55462;47.042;8.292;2024-03-06T13:43:09;2.10;;;2.00;;
45420;SDS011;55462;47.042;8.292;2024-03-06T13:45:35;2.60;;;2.43;;
45420;SDS011;55462;47.042;8.292;2024-03-06T13:48:02;2.40;;;2.20;;
45420;SDS011;55462;47.042;8.292;2024-03-06T13:50:27;1.60;;;1.60;;
45420;SDS011;55462;47.042;8.292;2024-03-06T13:52:54;2.10;;;1.90;;
45420;SDS011;55462;47.042;8.292;2024-03-06T13:55:19;2.30;;;1.90;;
45420;SDS011;55462;47.042;8.292;2024-03-06T13:57:45;2.17;;;2.07;;
45420;SDS011;55462;47.042;8.292;2024-03-06T14:00:10;3.70;;;2.57;;
45420;SDS011;55462;47.042;8.292;2024-03-06T14:02:37;2.23;;;1.80;;
45420;SDS011;55462;47.042;8.292;2024-03-06T14:05:04;2.70;;;2.00;;
45420;SDS011;55462;47.042;8.292;2024-03-06T14:07:29;1.83;;;1.73;;
45420;SDS011;55462;47.042;8.292;2024-03-06T14:09:55;2.10;;;1.80;;
45420;SDS011;55462;47.042;8.292;2024-03-06T14:12:22;2.30;;;2.03;;
45420;SDS011;55462;47.042;8.292;2024-03-06T14:14:47;1.60;;;1.50;;
45420;SDS011;55462;47.042;8.292;2024-03-06T14:17:12;2.10;;;1.83;;
45420;SDS011;55462;47.042;8.292;2024-03-06T14:19:38;2.00;;;1.90;;
45420;SDS011;55462;47.042;8.292;2024-03-06T14:22:05;2.67;;;2.10;;
45420;SDS011;55462;47.042;8.292;2024-03-06T14:24:31;2.70;;;2.50;;
45420;SDS011;55462;47.042;8.292;2024-03-06T14:26:56;2.63;;;2.40;;
45420;SDS011;55462;47.042;8.292;2024-03-06T14:29:22;2.60;;;2.40;;
45420;SDS011;55462;47.042;8.292;2024-03-06T14:31:47;2.20;;;1.93;;
45420;SDS011;55462;47.042;8.292;2024-03-06T14:34:12;3.20;;;2.00;;
45420;SDS011;55462;47.042;8.292;2024-03-06T14:36:38;2.43;;;2.33;;
45420;SDS011;55462;47.042;8.292;2024-03-06T14:39:04;2.33;;;2.13;;
45420;SDS011;55462;47.042;8.292;2024-03-06T14:41:29;1.70;;;1.60;;
45420;SDS011;55462;47.042;8.292;2024-03-06T14:43:54;2.03;;;1.93;;
45420;SDS011;55462;47.042;8.292;2024-03-06T14:46:20;2.00;;;1.83;;
45420;SDS011;55462;47.042;8.292;2024-03-06T14:48:45;1.93;;;1.80;;